createdAt,value
2019-03-02T00:01:49.604Z,5.55
2019-03-02T00:04:21.058Z,4.85
2019-03-02T00:06:50.677Z,6.13
2019-03-02T00:09:20.528Z,5.57
2019-03-02T00:11:52.963Z,6.03
2019-03-02T00:14:22.054Z,6.70
2019-03-02T00:16:52.063Z,5.78
2019-03-02T00:19:21.779Z,5.65
2019-03-02T00:21:51.531Z,5.10
2019-03-02T00:24:23.414Z,5.87
2019-03-02T00:26:54.831Z,5.87
2019-03-02T00:29:24.628Z,6.75
2019-03-02T00:31:54.391Z,5.60
2019-03-02T00:34:25.188Z,5.37
2019-03-02T00:36:58.534Z,5.17
2019-03-02T00:39:28.839Z,6.10
2019-03-02T00:41:58.900Z,5.70
2019-03-02T00:44:28.607Z,5.75
2019-03-02T00:46:59.687Z,5.80
2019-03-02T00:49:30.068Z,5.25
2019-03-02T00:52:00.090Z,5.80
2019-03-02T00:54:29.790Z,6.17
2019-03-02T00:56:59.525Z,5.00
2019-03-02T00:59:29.314Z,4.77
2019-03-02T01:02:00.787Z,5.63
2019-03-02T01:04:30.675Z,5.27
2019-03-02T01:07:02.192Z,5.90
2019-03-02T01:09:32.443Z,5.72
2019-03-02T01:12:02.195Z,4.97
2019-03-02T01:14:32.896Z,5.75
2019-03-02T01:17:03.979Z,6.10
2019-03-02T01:19:35.106Z,5.70
2019-03-02T01:22:05.018Z,4.83
2019-03-02T01:24:38.978Z,6.00
2019-03-02T01:27:08.227Z,5.90
2019-03-02T01:29:37.868Z,4.95
2019-03-02T01:32:07.839Z,5.00
2019-03-02T01:34:38.797Z,5.63
2019-03-02T01:37:09.280Z,5.17
2019-03-02T01:39:39.510Z,4.90
2019-03-02T01:42:09.939Z,5.15
2019-03-02T01:44:39.570Z,6.03
2019-03-02T01:47:09.140Z,5.22
2019-03-02T01:49:39.363Z,5.73
2019-03-02T01:52:09.207Z,4.92
2019-03-02T01:54:38.847Z,5.53
2019-03-02T01:57:13.674Z,5.35
2019-03-02T01:59:41.612Z,5.63
2019-03-02T02:02:12.168Z,5.60
2019-03-02T02:04:41.787Z,5.78
2019-03-02T02:07:14.440Z,6.30
2019-03-02T02:09:43.090Z,5.65
2019-03-02T02:12:13.279Z,5.75
2019-03-02T02:14:42.980Z,6.07
2019-03-02T02:17:14.500Z,5.77
2019-03-02T02:19:44.402Z,5.47
2019-03-02T02:22:14.197Z,5.93
2019-03-02T02:24:43.823Z,6.87
2019-03-02T02:27:14.678Z,5.33
2019-03-02T02:29:45.527Z,5.42
2019-03-02T02:32:19.182Z,6.12
2019-03-02T02:34:49.732Z,5.45
2019-03-02T02:37:19.566Z,5.30
2019-03-02T02:39:50.438Z,6.42
2019-03-02T02:42:23.253Z,5.65
2019-03-02T02:44:53.187Z,6.12
2019-03-02T02:47:22.818Z,5.85
2019-03-02T02:49:52.752Z,6.65
2019-03-02T02:52:28.088Z,5.30
2019-03-02T02:54:57.655Z,5.42
2019-03-02T02:57:27.834Z,6.80
2019-03-02T02:59:57.476Z,6.85
2019-03-02T03:02:27.148Z,5.95
2019-03-02T03:04:56.890Z,5.90
2019-03-02T03:07:26.718Z,6.33
2019-03-02T03:10:02.457Z,6.27
2019-03-02T03:12:35.486Z,5.90
2019-03-02T03:15:07.284Z,6.55
2019-03-02T03:17:38.583Z,6.58
2019-03-02T03:20:10.373Z,6.97
2019-03-02T03:22:46.017Z,6.75
2019-03-02T03:25:18.092Z,6.15
2019-03-02T03:27:51.907Z,6.00
2019-03-02T03:30:33.977Z,6.87
2019-03-02T03:32:56.022Z,5.85
2019-03-02T03:35:26.075Z,5.97
2019-03-02T03:37:55.724Z,6.47
2019-03-02T03:40:26.921Z,7.50
2019-03-02T03:43:02.955Z,8.60
2019-03-02T03:45:29.741Z,6.47
2019-03-02T03:47:59.590Z,5.70
2019-03-02T03:50:29.719Z,6.92
2019-03-02T03:52:59.443Z,6.00
2019-03-02T03:55:29.071Z,6.17
2019-03-02T03:58:01.948Z,5.72
2019-03-02T04:00:34.334Z,5.80
2019-03-02T04:03:04.116Z,5.47
2019-03-02T04:05:33.816Z,5.15
2019-03-02T04:08:05.832Z,5.72
2019-03-02T04:10:37.100Z,7.17
2019-03-02T04:13:09.879Z,6.37
2019-03-02T04:15:41.571Z,6.40
2019-03-02T04:18:55.498Z,6.40
2019-03-02T04:21:23.379Z,5.80
2019-03-02T04:23:56.096Z,6.17
2019-03-02T04:26:25.460Z,7.08
2019-03-02T04:28:55.080Z,6.60
2019-03-02T04:31:25.481Z,6.80
2019-03-02T04:33:55.626Z,6.67
2019-03-02T04:36:27.012Z,6.03
2019-03-02T04:38:59.163Z,6.17
2019-03-02T04:41:28.848Z,7.80
2019-03-02T04:43:58.514Z,6.45
2019-03-02T04:46:30.364Z,9.65
2019-03-02T04:49:00.072Z,6.53
2019-03-02T04:51:35.049Z,10.30
2019-03-02T04:54:03.039Z,7.28
2019-03-02T04:56:34.327Z,8.35
2019-03-02T04:59:06.116Z,8.38
2019-03-02T05:01:38.936Z,6.60
2019-03-02T05:04:09.978Z,6.80
2019-03-02T05:06:39.783Z,7.95
2019-03-02T05:09:09.640Z,8.18
2019-03-02T05:11:40.752Z,10.55
2019-03-02T05:14:11.992Z,8.87
2019-03-02T05:16:43.208Z,8.08
2019-03-02T05:19:13.447Z,9.00
2019-03-02T05:21:43.578Z,7.03
2019-03-02T05:24:14.098Z,8.58
2019-03-02T05:26:43.703Z,7.95
2019-03-02T05:29:17.678Z,9.98
2019-03-02T05:31:46.582Z,8.08
2019-03-02T05:34:16.331Z,8.23
2019-03-02T05:36:46.008Z,7.20
2019-03-02T05:39:18.096Z,12.03
2019-03-02T05:41:48.426Z,7.65
2019-03-02T05:44:19.183Z,7.85
2019-03-02T05:46:48.949Z,7.03
2019-03-02T05:49:19.939Z,11.85
2019-03-02T05:51:49.514Z,7.83
2019-03-02T05:54:19.119Z,8.13
2019-03-02T05:56:49.103Z,9.30
2019-03-02T05:59:22.857Z,8.15
2019-03-02T06:01:50.728Z,8.00
2019-03-02T06:04:22.013Z,11.00
2019-03-02T06:06:54.157Z,9.88
2019-03-02T06:09:25.534Z,8.20
2019-03-02T06:11:57.325Z,10.43
2019-03-02T06:14:30.506Z,8.28
2019-03-02T06:17:00.520Z,8.60
2019-03-02T06:19:30.191Z,9.40
2019-03-02T06:21:59.975Z,12.00
2019-03-02T06:24:30.764Z,8.60
2019-03-02T06:27:01.672Z,11.15
2019-03-02T06:29:32.782Z,9.40
2019-03-02T06:32:04.211Z,11.33
2019-03-02T06:34:34.000Z,11.03
2019-03-02T06:37:03.640Z,14.37
2019-03-02T06:39:33.443Z,11.33
2019-03-02T06:42:06.200Z,14.43
2019-03-02T06:44:36.725Z,11.85
2019-03-02T06:47:06.348Z,10.77
2019-03-02T06:49:38.695Z,8.63
2019-03-02T06:52:08.499Z,11.20
2019-03-02T06:54:40.589Z,11.20
2019-03-02T06:57:14.026Z,9.00
2019-03-02T06:59:44.417Z,11.40
2019-03-02T07:02:14.831Z,11.28
2019-03-02T07:04:46.135Z,10.05
2019-03-02T07:07:18.551Z,11.25
2019-03-02T07:09:49.235Z,13.70
2019-03-02T07:12:19.984Z,15.88
2019-03-02T07:14:51.881Z,12.93
2019-03-02T07:17:39.391Z,15.07
2019-03-02T07:20:15.647Z,8.83
2019-03-02T07:22:48.702Z,14.95
2019-03-02T07:25:17.937Z,7.83
2019-03-02T07:27:47.736Z,16.30
2019-03-02T07:30:19.412Z,18.90
2019-03-02T07:32:49.268Z,14.45
2019-03-02T07:35:19.546Z,10.00
2019-03-02T07:37:51.175Z,14.78
2019-03-02T07:40:21.973Z,16.12
2019-03-02T07:42:53.498Z,13.08
2019-03-02T07:45:23.159Z,13.05
2019-03-02T07:48:00.290Z,12.55
2019-03-02T07:50:29.605Z,8.60
2019-03-02T07:52:59.232Z,13.22
2019-03-02T07:55:28.855Z,10.28
2019-03-02T07:57:58.446Z,10.98
2019-03-02T08:00:29.875Z,11.12
2019-03-02T08:03:00.041Z,14.35
2019-03-02T08:05:31.114Z,7.53
2019-03-02T08:08:00.796Z,11.08
2019-03-02T08:10:30.406Z,8.73
2019-03-02T08:13:00.813Z,10.65
2019-03-02T08:15:31.703Z,8.50
2019-03-02T08:18:01.928Z,11.20
2019-03-02T08:20:31.691Z,15.08
2019-03-02T08:23:02.741Z,10.35
2019-03-02T08:25:32.399Z,9.73
2019-03-02T08:28:06.755Z,10.32
2019-03-02T08:30:35.222Z,8.50
2019-03-02T08:33:04.966Z,12.58
2019-03-02T08:35:34.611Z,12.23
2019-03-02T08:38:05.290Z,14.28
2019-03-02T08:40:37.070Z,13.28
2019-03-02T08:43:06.877Z,11.20
2019-03-02T08:45:36.528Z,16.97
2019-03-02T08:48:07.358Z,9.98
2019-03-02T08:50:38.778Z,14.13
2019-03-02T08:53:11.380Z,9.38
2019-03-02T08:55:41.032Z,15.18
2019-03-02T08:58:11.280Z,14.50
2019-03-02T09:00:43.148Z,9.80
2019-03-02T09:03:14.077Z,13.08
2019-03-02T09:05:51.277Z,13.05
2019-03-02T09:08:15.876Z,15.55
2019-03-02T09:10:48.824Z,9.93
2019-03-02T09:13:18.884Z,13.55
2019-03-02T09:15:50.336Z,11.53
2019-03-02T09:18:20.396Z,13.08
2019-03-02T09:20:50.103Z,14.40
2019-03-02T09:23:19.650Z,14.87
2019-03-02T09:25:49.375Z,9.73
2019-03-02T09:28:19.051Z,12.73
2019-03-02T09:30:48.882Z,10.03
2019-03-02T09:33:18.643Z,12.07
2019-03-02T09:35:54.709Z,9.50
2019-03-02T09:38:23.760Z,10.50
2019-03-02T09:40:56.928Z,8.98
2019-03-02T09:43:27.747Z,11.85
2019-03-02T09:45:59.164Z,10.28
2019-03-02T09:48:28.903Z,16.27
2019-03-02T09:50:59.935Z,7.97
2019-03-02T09:53:30.549Z,12.78
2019-03-02T09:56:03.425Z,10.25
2019-03-02T09:58:34.891Z,10.58
2019-03-02T10:01:04.871Z,17.23
2019-03-02T10:03:35.008Z,9.28
2019-03-02T10:06:05.016Z,11.43
2019-03-02T10:08:34.635Z,14.87
2019-03-02T10:11:06.115Z,15.83
2019-03-02T10:13:36.728Z,13.08
2019-03-02T10:16:07.126Z,16.37
2019-03-02T10:18:36.695Z,15.35
2019-03-02T10:21:06.539Z,16.55
2019-03-02T10:23:38.932Z,15.87
2019-03-02T10:26:08.944Z,16.85
2019-03-02T10:28:40.059Z,15.10
2019-03-02T10:31:09.774Z,13.93
2019-03-02T10:33:39.341Z,13.90
2019-03-02T10:36:08.974Z,15.95
2019-03-02T10:38:38.763Z,15.03
2019-03-02T10:41:09.246Z,12.15
2019-03-02T10:43:45.570Z,15.60
2019-03-02T10:46:15.672Z,12.87
2019-03-02T10:48:45.605Z,13.10
2019-03-02T10:51:15.372Z,14.05
2019-03-02T10:53:44.979Z,13.90
2019-03-02T10:56:16.934Z,15.35
2019-03-02T10:58:46.807Z,15.87
2019-03-02T11:01:17.938Z,15.40
2019-03-02T11:03:47.712Z,15.48
2019-03-02T11:06:33.045Z,12.73
2019-03-02T11:09:27.599Z,13.50
2019-03-02T11:12:09.452Z,14.68
2019-03-02T11:14:48.834Z,15.10
2019-03-02T11:17:40.798Z,12.80
2019-03-02T11:20:27.223Z,15.70
2019-03-02T11:23:19.678Z,11.28
2019-03-02T11:26:17.083Z,14.07
2019-03-02T11:29:21.212Z,15.80
2019-03-02T11:32:12.518Z,13.83
2019-03-02T11:35:14.503Z,15.10
2019-03-02T11:38:02.843Z,13.60
2019-03-02T11:40:46.799Z,13.68
2019-03-02T11:43:36.940Z,14.97
2019-03-02T11:46:16.208Z,14.58
2019-03-02T11:48:56.849Z,14.40
2019-03-02T11:51:38.821Z,12.95
2019-03-02T11:54:15.868Z,11.70
2019-03-02T11:57:21.120Z,12.65
2019-03-02T12:00:22.503Z,13.15
2019-03-02T12:03:02.424Z,14.03
2019-03-02T12:05:51.315Z,15.67
2019-03-02T12:08:39.812Z,13.88
2019-03-02T12:11:18.088Z,14.18
2019-03-02T12:13:58.343Z,11.53
2019-03-02T12:17:05.911Z,13.98
2019-03-02T12:19:55.759Z,12.18
2019-03-02T12:22:38.320Z,11.83
2019-03-02T12:25:35.086Z,12.30
2019-03-02T12:28:22.453Z,14.63
2019-03-02T12:31:12.090Z,12.40
2019-03-02T12:33:47.647Z,13.57
2019-03-02T12:36:43.568Z,14.00
2019-03-02T12:39:34.373Z,13.73
2019-03-02T12:42:22.004Z,13.33
2019-03-02T12:45:30.059Z,13.27
2019-03-02T12:48:34.404Z,13.98
2019-03-02T12:51:23.018Z,12.95
2019-03-02T12:54:09.219Z,12.10
2019-03-02T12:56:57.711Z,12.63
2019-03-02T13:00:02.250Z,13.43
2019-03-02T13:02:56.055Z,11.22
2019-03-02T13:05:43.299Z,13.55
2019-03-02T13:08:34.993Z,12.10
2019-03-02T13:11:28.871Z,12.23
2019-03-02T13:14:18.456Z,12.68
2019-03-02T13:17:06.006Z,12.45
2019-03-02T13:19:50.788Z,12.82
2019-03-02T13:22:35.553Z,12.00
2019-03-02T13:25:33.670Z,12.65
2019-03-02T13:28:30.917Z,9.30
2019-03-02T13:31:22.323Z,12.20
2019-03-02T13:34:11.675Z,10.77
2019-03-02T13:37:06.262Z,9.68
2019-03-02T13:39:59.841Z,10.23
2019-03-02T13:42:51.069Z,8.93
2019-03-02T13:45:45.892Z,10.75
2019-03-02T13:48:51.122Z,10.03
2019-03-02T13:51:43.727Z,10.00
2019-03-02T13:54:39.930Z,9.73
2019-03-02T13:57:17.377Z,8.33
2019-03-02T14:00:07.924Z,9.30
2019-03-02T14:02:57.819Z,8.78
2019-03-02T14:05:43.004Z,10.38
2019-03-02T14:08:31.907Z,8.88
2019-03-02T14:11:20.411Z,8.10
2019-03-02T14:14:03.223Z,9.47
2019-03-02T14:17:08.393Z,9.65
2019-03-02T14:19:55.833Z,9.48
2019-03-02T14:22:44.893Z,7.93
2019-03-02T14:25:42.777Z,7.90
2019-03-02T14:28:25.221Z,7.85
2019-03-02T14:31:20.110Z,5.90
2019-03-02T14:34:19.201Z,8.40
2019-03-02T14:36:57.491Z,7.00
2019-03-02T14:39:39.341Z,7.97
2019-03-02T14:42:17.251Z,7.77
2019-03-02T14:45:10.838Z,7.58
2019-03-02T14:48:17.753Z,7.63
2019-03-02T14:51:01.987Z,6.57
2019-03-02T14:53:53.534Z,7.25
2019-03-02T14:56:49.264Z,6.45
2019-03-02T14:59:41.916Z,7.35
2019-03-02T15:02:41.367Z,7.63
2019-03-02T15:05:30.184Z,7.72
2019-03-02T15:08:21.824Z,8.15
2019-03-02T15:11:07.953Z,8.58
2019-03-02T15:13:55.158Z,7.83
2019-03-02T15:16:43.354Z,7.45
2019-03-02T15:19:31.376Z,5.47
2019-03-02T15:22:36.658Z,6.93
2019-03-02T15:25:29.667Z,6.92
2019-03-02T15:28:10.424Z,6.75
2019-03-02T15:31:03.082Z,7.45
2019-03-02T15:33:58.262Z,8.17
2019-03-02T15:36:51.827Z,8.20
2019-03-02T15:39:53.651Z,7.70
2019-03-02T15:42:46.732Z,7.22
2019-03-02T15:45:25.204Z,7.10
2019-03-02T15:48:05.911Z,7.60
2019-03-02T15:50:54.590Z,5.85
2019-03-02T15:53:44.096Z,6.43
2019-03-02T15:56:31.988Z,4.77
2019-03-02T15:59:23.851Z,8.07
2019-03-02T16:02:13.822Z,7.33
2019-03-02T16:05:20.819Z,6.47
2019-03-02T16:08:14.451Z,5.85
2019-03-02T16:11:08.815Z,7.33
2019-03-02T16:14:07.615Z,6.75
2019-03-02T16:16:59.998Z,6.67
2019-03-02T16:19:48.950Z,5.93
2019-03-02T16:22:30.057Z,7.03
2019-03-02T16:25:09.455Z,7.12
2019-03-02T16:28:06.037Z,5.92
2019-03-02T16:31:12.507Z,5.92
2019-03-02T16:34:07.942Z,6.83
2019-03-02T16:36:43.848Z,5.73
2019-03-02T16:39:39.004Z,7.62
2019-03-02T16:42:23.390Z,6.77
2019-03-02T16:44:58.519Z,6.85
2019-03-02T16:47:56.871Z,5.65
2019-03-02T16:50:35.698Z,5.95
2019-03-02T16:53:30.415Z,5.90
2019-03-02T16:56:37.323Z,6.20
2019-03-02T16:59:46.673Z,5.70
2019-03-02T17:02:41.295Z,6.53
2019-03-02T17:05:33.048Z,6.65
2019-03-02T17:08:18.474Z,6.35
2019-03-02T17:11:04.101Z,6.78
2019-03-02T17:14:09.192Z,6.17
2019-03-02T17:17:03.829Z,6.27
2019-03-02T17:19:51.091Z,7.50
2019-03-02T17:22:45.047Z,5.75
2019-03-02T17:25:34.701Z,5.92
2019-03-02T17:28:31.509Z,7.35
2019-03-02T17:31:17.111Z,6.03
2019-03-02T17:34:09.806Z,5.75
2019-03-02T17:36:46.851Z,6.17
2019-03-02T17:39:41.952Z,6.33
2019-03-02T17:42:31.754Z,5.78
2019-03-02T17:45:27.497Z,6.10
2019-03-02T17:51:13.126Z,7.85
2019-03-02T17:54:07.439Z,6.03
2019-03-02T17:56:59.127Z,5.65
2019-03-02T17:59:53.590Z,5.05
2019-03-02T18:02:53.894Z,5.00
2019-03-02T18:05:44.112Z,5.95
2019-03-02T18:08:31.880Z,5.62
2019-03-02T18:11:19.433Z,5.83
2019-03-02T18:14:07.956Z,6.40
2019-03-02T18:16:56.715Z,5.25
2019-03-02T18:19:26.280Z,6.70
2019-03-02T18:21:55.950Z,6.33
2019-03-02T18:24:25.742Z,6.35
2019-03-02T18:26:57.023Z,6.55
2019-03-02T18:29:29.301Z,6.78
2019-03-02T18:32:02.340Z,6.67
2019-03-02T18:34:33.142Z,6.35
2019-03-02T18:37:03.603Z,5.90
2019-03-02T18:39:33.363Z,6.20
2019-03-02T18:42:04.384Z,5.90
2019-03-02T18:44:34.342Z,5.50
2019-03-02T18:47:04.897Z,5.90
2019-03-02T18:49:51.638Z,7.15
2019-03-02T18:52:43.288Z,4.65
2019-03-02T18:55:12.926Z,6.50
2019-03-02T18:57:46.514Z,5.97
2019-03-02T19:00:22.139Z,5.62
2019-03-02T19:02:50.489Z,5.50
2019-03-02T19:05:28.704Z,5.22
2019-03-02T19:07:59.735Z,5.10
2019-03-02T19:10:29.592Z,6.67
2019-03-02T19:12:59.480Z,7.27
2019-03-02T19:15:29.454Z,6.12
2019-03-02T19:17:59.116Z,6.35
2019-03-02T19:20:29.876Z,6.78
2019-03-02T19:22:59.411Z,6.03
2019-03-02T19:25:30.132Z,5.17
2019-03-02T19:28:02.372Z,7.28
2019-03-02T19:30:32.040Z,6.47
2019-03-02T19:33:02.955Z,5.87
2019-03-02T19:35:33.805Z,6.35
2019-03-02T19:38:05.830Z,5.97
2019-03-02T19:40:38.358Z,5.97
2019-03-02T19:43:08.063Z,5.53
2019-03-02T19:45:38.112Z,6.67
2019-03-02T19:48:07.832Z,6.72
2019-03-02T19:50:37.419Z,5.55
2019-03-02T19:53:07.055Z,6.62
2019-03-02T19:55:41.771Z,7.35
2019-03-02T19:58:11.516Z,6.25
2019-03-02T20:00:41.616Z,6.97
2019-03-02T20:03:12.671Z,8.08
2019-03-02T20:05:42.951Z,6.50
2019-03-02T20:08:14.859Z,7.15
2019-03-02T20:10:46.880Z,6.83
2019-03-02T20:13:16.555Z,6.87
2019-03-02T20:15:46.826Z,5.97
2019-03-02T20:18:17.832Z,6.30
2019-03-02T20:20:47.737Z,6.58
2019-03-02T20:23:18.532Z,5.37
2019-03-02T20:25:48.520Z,5.90
2019-03-02T20:28:18.159Z,6.15
2019-03-02T20:30:48.183Z,4.58
2019-03-02T20:33:18.135Z,6.03
2019-03-02T20:35:47.721Z,6.47
2019-03-02T20:38:17.617Z,6.85
2019-03-02T20:40:47.207Z,7.47
2019-03-02T20:43:20.467Z,6.60
2019-03-02T20:45:50.143Z,6.17
2019-03-02T20:48:19.980Z,6.90
2019-03-02T20:50:49.747Z,7.05
2019-03-02T20:53:21.599Z,6.50
2019-03-02T20:55:51.391Z,6.28
2019-03-02T20:58:22.821Z,5.62
2019-03-02T21:00:52.600Z,6.72
2019-03-02T21:03:22.319Z,7.22
2019-03-02T21:05:52.373Z,6.40
2019-03-02T21:08:22.266Z,7.05
2019-03-02T21:10:52.128Z,7.60
2019-03-02T21:13:21.738Z,6.57
2019-03-02T21:15:52.526Z,7.17
2019-03-02T21:18:23.531Z,6.70
2019-03-02T21:20:53.616Z,6.75
2019-03-02T21:23:23.241Z,7.20
2019-03-02T21:25:55.163Z,7.42
2019-03-02T21:28:27.179Z,6.87
2019-03-02T21:30:57.048Z,6.83
2019-03-02T21:33:26.807Z,7.33
2019-03-02T21:35:56.911Z,5.65
2019-03-02T21:38:26.956Z,5.90
2019-03-02T21:40:56.990Z,6.97
2019-03-02T21:43:26.692Z,7.17
2019-03-02T21:45:56.599Z,7.10
2019-03-02T21:48:26.299Z,5.57
2019-03-02T21:50:57.492Z,6.37
2019-03-02T21:53:27.595Z,6.30
2019-03-02T21:55:57.164Z,6.20
2019-03-02T21:58:28.660Z,5.55
2019-03-02T22:00:58.633Z,4.97
2019-03-02T22:03:28.473Z,7.03
2019-03-02T22:05:59.251Z,5.72
2019-03-02T22:08:28.991Z,5.90
2019-03-02T22:11:02.816Z,6.80
2019-03-02T22:13:32.514Z,6.60
2019-03-02T22:16:03.732Z,7.20
2019-03-02T22:18:33.493Z,6.40
2019-03-02T22:21:03.322Z,6.55
2019-03-02T22:23:32.907Z,6.58
2019-03-02T22:26:04.123Z,5.72
2019-03-02T22:28:33.849Z,5.87
2019-03-02T22:31:03.637Z,7.60
2019-03-02T22:33:33.407Z,6.67
2019-03-02T22:36:03.150Z,6.08
2019-03-02T22:38:32.872Z,6.40
2019-03-02T22:41:02.522Z,6.33
2019-03-02T22:43:32.292Z,6.67
2019-03-02T22:46:02.399Z,6.15
2019-03-02T22:48:32.152Z,7.42
2019-03-02T22:51:02.586Z,7.20
2019-03-02T22:53:33.346Z,6.33
2019-03-02T22:56:03.131Z,6.60
2019-03-02T22:58:32.078Z,7.08
2019-03-02T23:01:55.299Z,6.60
2019-03-02T23:04:25.047Z,6.90
2019-03-02T23:06:54.803Z,8.23
2019-03-02T23:09:24.716Z,7.78
2019-03-02T23:11:54.722Z,8.13
2019-03-02T23:14:24.316Z,7.65
2019-03-02T23:16:55.228Z,8.53
2019-03-02T23:19:25.288Z,5.90
2019-03-02T23:21:55.103Z,6.13
2019-03-02T23:24:24.993Z,7.78
2019-03-02T23:26:54.660Z,7.60
2019-03-02T23:29:24.516Z,8.60
2019-03-02T23:31:54.184Z,6.78
2019-03-02T23:34:23.853Z,7.78
2019-03-02T23:36:55.339Z,7.80
2019-03-02T23:39:25.975Z,6.67
2019-03-02T23:41:55.694Z,7.33
2019-03-02T23:44:27.126Z,6.87
2019-03-02T23:46:56.720Z,6.25
2019-03-02T23:49:26.394Z,6.10
2019-03-02T23:51:57.450Z,7.35
2019-03-02T23:54:27.139Z,6.37
2019-03-02T23:56:57.890Z,6.10
2019-03-02T23:59:28.071Z,6.53
